createdAt,value
2019-02-12T00:01:05.854Z,25.25
2019-02-12T00:03:35.553Z,26.97
2019-02-12T00:06:04.557Z,25.57
2019-02-12T00:08:34.153Z,24.20
2019-02-12T00:11:03.132Z,26.97
2019-02-12T00:13:33.332Z,25.32
2019-02-12T00:16:02.322Z,26.68
2019-02-12T00:18:31.412Z,22.95
2019-02-12T00:21:08.794Z,24.15
2019-02-12T00:23:30.967Z,22.87
2019-02-12T00:25:59.863Z,26.10
2019-02-12T00:28:28.952Z,23.35
2019-02-12T00:30:59.501Z,22.70
2019-02-12T00:33:28.432Z,23.65
2019-02-12T00:35:57.395Z,22.95
2019-02-12T00:38:26.344Z,22.55
2019-02-12T00:40:55.269Z,21.20
2019-02-12T00:43:25.588Z,22.90
2019-02-12T00:45:57.287Z,20.45
2019-02-12T00:48:26.321Z,21.45
2019-02-12T00:50:55.292Z,18.60
2019-02-12T00:53:24.136Z,23.25
2019-02-12T00:55:53.016Z,19.05
2019-02-12T00:58:21.927Z,20.92
2019-02-12T01:00:51.109Z,17.50
2019-02-12T01:03:19.949Z,20.08
2019-02-12T01:05:48.872Z,17.67
2019-02-12T01:08:17.851Z,20.08
2019-02-12T01:10:49.728Z,20.57
2019-02-12T01:13:18.856Z,20.48
2019-02-12T01:15:47.723Z,21.05
2019-02-12T01:18:17.517Z,19.15
2019-02-12T01:20:46.396Z,18.43
2019-02-12T01:23:15.251Z,17.87
2019-02-12T01:25:45.480Z,20.48
2019-02-12T01:28:14.793Z,18.45
2019-02-12T01:31:02.860Z,19.73
2019-02-12T01:33:32.029Z,18.37
2019-02-12T01:36:00.944Z,19.73
2019-02-12T01:38:29.956Z,18.07
2019-02-12T01:40:59.404Z,20.52
2019-02-12T01:43:28.256Z,21.97
2019-02-12T01:45:57.236Z,20.52
2019-02-12T01:48:26.365Z,17.02
2019-02-12T01:50:55.217Z,17.20
2019-02-12T01:53:24.176Z,15.32
2019-02-12T01:55:53.663Z,19.52
2019-02-12T01:58:22.815Z,22.87
2019-02-12T02:00:51.851Z,16.52
2019-02-12T02:03:20.981Z,21.05
2019-02-12T02:05:49.868Z,18.00
2019-02-12T02:08:18.911Z,22.50
2019-02-12T02:10:47.800Z,19.48
2019-02-12T02:13:18.029Z,22.02
2019-02-12T02:15:46.992Z,17.42
2019-02-12T02:18:15.989Z,18.92
2019-02-12T02:20:44.921Z,18.47
2019-02-12T02:23:14.387Z,19.85
2019-02-12T02:25:43.521Z,22.02
2019-02-12T02:28:12.533Z,18.52
2019-02-12T02:30:41.529Z,19.77
2019-02-12T02:33:10.545Z,19.02
2019-02-12T02:35:39.428Z,20.35
2019-02-12T02:38:08.585Z,20.75
2019-02-12T02:40:37.578Z,19.05
2019-02-12T02:43:06.462Z,17.17
2019-02-12T02:45:35.372Z,19.37
2019-02-12T02:48:04.394Z,20.23
2019-02-12T02:50:33.350Z,22.05
2019-02-12T02:53:02.740Z,20.97
2019-02-12T02:55:31.785Z,20.63
2019-02-12T02:58:00.774Z,21.60
2019-02-12T03:00:30.236Z,20.68
2019-02-12T03:02:59.431Z,22.40
2019-02-12T03:05:28.405Z,22.05
2019-02-12T03:07:57.446Z,25.75
2019-02-12T03:10:27.428Z,21.20
2019-02-12T03:12:56.357Z,27.58
2019-02-12T03:15:25.699Z,23.55
2019-02-12T03:17:55.349Z,24.27
2019-02-12T03:20:24.390Z,26.02
2019-02-12T03:22:53.318Z,27.98
2019-02-12T03:25:22.268Z,27.02
2019-02-12T03:27:51.479Z,28.35
2019-02-12T03:30:20.545Z,26.00
2019-02-12T03:32:49.413Z,25.48
2019-02-12T03:35:18.429Z,23.60
2019-02-12T03:37:47.478Z,26.77
2019-02-12T03:40:16.507Z,24.12
2019-02-12T03:42:45.560Z,21.75
2019-02-12T03:45:14.652Z,25.23
2019-02-12T03:47:43.667Z,21.80
2019-02-12T03:50:12.856Z,24.72
2019-02-12T03:52:41.836Z,26.37
2019-02-12T03:55:11.735Z,24.65
2019-02-12T03:57:40.733Z,21.93
2019-02-12T04:00:12.740Z,24.12
2019-02-12T04:03:06.214Z,25.20
2019-02-12T04:05:36.231Z,23.70
2019-02-12T04:08:05.496Z,26.45
2019-02-12T04:10:34.488Z,25.02
2019-02-12T04:13:03.526Z,27.53
2019-02-12T04:15:33.125Z,25.45
2019-02-12T04:18:02.098Z,25.00
2019-02-12T04:20:31.097Z,22.22
2019-02-12T04:23:00.499Z,22.42
2019-02-12T04:25:29.466Z,25.85
2019-02-12T04:27:58.409Z,21.25
2019-02-12T04:30:27.294Z,25.60
2019-02-12T04:32:56.629Z,24.73
2019-02-12T04:35:26.060Z,23.50
2019-02-12T04:37:55.095Z,23.83
2019-02-12T04:40:24.088Z,24.00
2019-02-12T04:42:53.951Z,23.25
2019-02-12T04:45:22.868Z,22.10
2019-02-12T04:47:51.902Z,21.13
2019-02-12T04:50:20.838Z,23.35
2019-02-12T04:52:50.364Z,23.67
2019-02-12T04:55:19.446Z,23.10
2019-02-12T04:57:48.377Z,25.52
2019-02-12T05:00:17.398Z,24.03
2019-02-12T05:02:46.417Z,24.07
2019-02-12T05:05:15.509Z,21.55
2019-02-12T05:08:00.773Z,21.25
2019-02-12T05:10:32.242Z,22.23
2019-02-12T05:13:01.270Z,22.48
2019-02-12T05:15:30.277Z,21.85
2019-02-12T05:18:00.495Z,21.97
2019-02-12T05:20:29.664Z,26.17
2019-02-12T05:22:58.528Z,20.82
2019-02-12T05:25:27.396Z,25.68
2019-02-12T05:27:56.700Z,21.13
2019-02-12T05:30:25.695Z,21.50
2019-02-12T05:32:54.531Z,24.55
2019-02-12T05:35:23.384Z,22.02
2019-02-12T05:37:53.233Z,20.08
2019-02-12T05:40:22.060Z,23.10
2019-02-12T05:42:51.221Z,22.73
2019-02-12T05:45:20.257Z,24.30
2019-02-12T05:47:49.081Z,22.30
2019-02-12T05:50:18.480Z,22.67
2019-02-12T05:52:54.331Z,22.27
2019-02-12T05:55:18.062Z,28.55
2019-02-12T05:57:46.934Z,25.90
2019-02-12T06:00:17.655Z,26.82
2019-02-12T06:02:46.688Z,22.48
2019-02-12T06:05:26.176Z,22.73
2019-02-12T06:07:55.127Z,24.00
2019-02-12T06:10:24.124Z,23.45
2019-02-12T06:12:53.708Z,24.87
2019-02-12T06:15:23.125Z,19.37
2019-02-12T06:17:52.017Z,22.70
2019-02-12T06:20:20.943Z,21.10
2019-02-12T06:22:49.987Z,24.18
2019-02-12T06:25:19.278Z,21.73
2019-02-12T06:27:48.809Z,19.77
2019-02-12T06:30:17.730Z,21.87
2019-02-12T06:32:46.981Z,19.57
2019-02-12T06:35:15.956Z,23.57
2019-02-12T06:37:44.912Z,20.77
2019-02-12T06:40:13.841Z,20.88
2019-02-12T06:42:42.751Z,20.23
2019-02-12T06:45:11.817Z,18.57
2019-02-12T06:47:40.696Z,21.30
2019-02-12T06:50:10.140Z,17.45
2019-02-12T06:52:39.079Z,16.97
2019-02-12T06:55:08.577Z,15.37
2019-02-12T06:57:37.687Z,18.32
2019-02-12T07:00:09.167Z,19.20
2019-02-12T07:03:06.207Z,18.82
2019-02-12T07:05:35.146Z,15.18
2019-02-12T07:08:54.626Z,14.00
2019-02-12T07:11:48.074Z,18.25
2019-02-12T07:14:37.621Z,19.55
2019-02-12T07:17:21.925Z,18.75
2019-02-12T07:20:16.643Z,17.37
2019-02-12T07:23:21.381Z,17.37
2019-02-12T07:26:47.008Z,20.37
2019-02-12T07:30:09.096Z,19.27
2019-02-12T07:33:00.977Z,18.55
2019-02-12T07:36:07.013Z,20.35
2019-02-12T07:39:00.288Z,20.15
2019-02-12T07:41:41.167Z,18.15
2019-02-12T07:44:22.440Z,20.88
2019-02-12T07:47:15.323Z,18.45
2019-02-12T07:50:25.776Z,19.80
2019-02-12T07:53:50.352Z,17.87
2019-02-12T07:56:48.296Z,20.27
2019-02-12T08:00:01.198Z,19.80
2019-02-12T08:03:01.352Z,21.57
2019-02-12T08:06:04.395Z,20.23
2019-02-12T08:09:09.393Z,19.67
2019-02-12T08:12:06.981Z,20.82
2019-02-12T08:15:32.312Z,18.35
2019-02-12T08:18:23.379Z,21.70
2019-02-12T08:21:31.393Z,19.87
2019-02-12T08:24:40.445Z,18.80
2019-02-12T08:27:49.313Z,16.20
2019-02-12T08:30:33.135Z,17.42
2019-02-12T08:33:42.614Z,18.55
2019-02-12T08:36:51.560Z,19.20
2019-02-12T08:39:46.815Z,20.75
2019-02-12T08:42:53.384Z,20.68
2019-02-12T08:45:47.563Z,22.90
2019-02-12T08:49:01.109Z,21.13
2019-02-12T08:51:59.671Z,19.50
2019-02-12T08:55:06.564Z,22.15
2019-02-12T08:57:47.741Z,20.95
2019-02-12T09:00:42.656Z,18.52
2019-02-12T09:03:46.690Z,22.27
2019-02-12T09:06:30.383Z,23.02
2019-02-12T09:09:40.503Z,19.87
2019-02-12T09:13:02.935Z,21.62
2019-02-12T09:16:13.824Z,16.95
2019-02-12T09:18:55.831Z,19.02
2019-02-12T09:21:47.476Z,20.52
2019-02-12T09:24:41.942Z,16.60
2019-02-12T09:27:40.148Z,20.57
2019-02-12T09:31:03.041Z,18.77
2019-02-12T09:34:01.968Z,21.52
2019-02-12T09:37:00.293Z,19.17
2019-02-12T09:40:19.131Z,20.05
2019-02-12T09:42:53.708Z,17.95
2019-02-12T09:45:41.086Z,16.07
2019-02-12T09:48:37.899Z,19.35
2019-02-12T09:51:20.618Z,22.17
2019-02-12T09:54:21.802Z,19.12
2019-02-12T09:57:56.292Z,18.30
2019-02-12T10:00:54.263Z,19.37
2019-02-12T10:04:12.604Z,19.42
2019-02-12T10:07:05.676Z,18.52
2019-02-12T10:09:57.612Z,16.97
2019-02-12T10:12:49.748Z,18.77
2019-02-12T10:16:04.086Z,17.98
2019-02-12T10:19:42.049Z,16.50
2019-02-12T10:22:29.251Z,16.33
2019-02-12T10:25:21.868Z,15.30
2019-02-12T10:28:02.369Z,20.23
2019-02-12T10:31:18.867Z,22.20
2019-02-12T10:33:47.720Z,15.18
2019-02-12T10:36:16.736Z,16.05
2019-02-12T10:38:45.669Z,15.05
2019-02-12T10:41:14.629Z,16.07
2019-02-12T10:43:43.631Z,16.70
2019-02-12T10:46:12.807Z,15.38
2019-02-12T10:48:41.707Z,16.45
2019-02-12T10:51:10.672Z,16.40
2019-02-12T10:53:39.564Z,13.50
2019-02-12T10:56:08.492Z,15.03
2019-02-12T10:58:37.420Z,13.35
2019-02-12T11:01:08.535Z,16.15
2019-02-12T11:03:37.523Z,15.58
2019-02-12T11:06:06.520Z,14.10
2019-02-12T11:08:35.365Z,13.30
2019-02-12T11:11:04.369Z,18.35
2019-02-12T11:13:33.327Z,16.80
2019-02-12T11:16:02.301Z,18.85
2019-02-12T11:18:31.252Z,16.27
2019-02-12T11:21:01.417Z,17.20
2019-02-12T11:23:30.424Z,15.75
2019-02-12T11:26:00.148Z,15.95
2019-02-12T11:28:29.379Z,15.25
2019-02-12T11:30:58.420Z,15.32
2019-02-12T11:33:28.140Z,15.83
2019-02-12T11:35:57.146Z,13.30
2019-02-12T11:38:28.123Z,16.55
2019-02-12T11:40:57.924Z,17.70
2019-02-12T11:43:26.799Z,17.85
2019-02-12T11:45:55.729Z,17.27
2019-02-12T11:48:24.631Z,17.90
2019-02-12T11:50:53.555Z,13.90
2019-02-12T11:53:22.535Z,15.43
2019-02-12T11:55:51.503Z,16.73
2019-02-12T11:58:20.492Z,18.42
2019-02-12T12:00:57.114Z,15.28
2019-02-12T12:03:26.036Z,16.05
2019-02-12T12:05:54.940Z,16.48
2019-02-12T12:08:24.241Z,16.10
2019-02-12T12:10:53.158Z,16.17
2019-02-12T12:13:22.145Z,18.87
2019-02-12T12:15:51.025Z,18.17
2019-02-12T12:18:19.924Z,15.90
2019-02-12T12:20:48.772Z,16.95
2019-02-12T12:23:17.771Z,18.42
2019-02-12T12:25:46.721Z,18.73
2019-02-12T12:28:15.651Z,19.32
2019-02-12T12:30:44.601Z,18.67
2019-02-12T12:33:13.503Z,16.97
2019-02-12T12:35:42.529Z,18.62
2019-02-12T12:38:11.563Z,16.48
2019-02-12T12:40:40.480Z,17.63
2019-02-12T12:43:09.829Z,16.45
2019-02-12T12:45:38.780Z,17.23
2019-02-12T12:48:07.794Z,15.05
2019-02-12T12:50:37.136Z,20.50
2019-02-12T12:53:06.117Z,22.40
2019-02-12T12:55:35.011Z,17.45
2019-02-12T12:58:04.004Z,15.65
2019-02-12T13:00:33.948Z,19.25
2019-02-12T13:03:02.868Z,16.10
2019-02-12T13:05:31.707Z,21.00
2019-02-12T13:08:00.647Z,18.85
2019-02-12T13:10:29.552Z,18.98
2019-02-12T13:12:58.667Z,15.40
2019-02-12T13:15:27.612Z,16.02
2019-02-12T13:17:56.757Z,17.42
2019-02-12T13:20:25.744Z,14.50
2019-02-12T13:22:54.705Z,17.55
2019-02-12T13:25:23.536Z,19.35
2019-02-12T13:27:52.767Z,17.82
2019-02-12T13:30:21.625Z,19.30
2019-02-12T13:32:50.559Z,17.50
2019-02-12T13:35:19.480Z,16.80
2019-02-12T13:37:48.505Z,18.82
2019-02-12T13:40:17.423Z,16.40
2019-02-12T13:42:47.251Z,15.48
2019-02-12T13:45:16.376Z,18.57
2019-02-12T13:47:45.297Z,17.60
2019-02-12T13:50:14.328Z,16.25
2019-02-12T13:52:43.348Z,16.07
2019-02-12T13:55:17.409Z,18.75
2019-02-12T13:57:43.136Z,18.12
2019-02-12T14:00:13.273Z,15.23
2019-02-12T14:02:42.183Z,14.68
2019-02-12T14:05:13.438Z,15.50
2019-02-12T14:07:43.774Z,17.52
2019-02-12T14:10:12.845Z,16.15
2019-02-12T14:12:41.789Z,20.65
2019-02-12T14:15:11.865Z,16.37
2019-02-12T14:17:40.892Z,16.35
2019-02-12T14:20:11.845Z,16.40
2019-02-12T14:22:41.131Z,17.27
2019-02-12T14:25:10.731Z,16.55
2019-02-12T14:27:39.737Z,14.07
2019-02-12T14:30:10.519Z,14.40
2019-02-12T14:32:39.531Z,16.30
2019-02-12T14:35:08.971Z,17.35
2019-02-12T14:37:37.881Z,15.72
2019-02-12T14:40:07.880Z,13.03
2019-02-12T14:42:36.712Z,16.43
2019-02-12T14:45:07.324Z,18.37
2019-02-12T14:47:36.169Z,17.27
2019-02-12T14:50:05.585Z,16.93
2019-02-12T14:52:34.943Z,17.40
2019-02-12T14:55:03.931Z,16.32
2019-02-12T14:57:32.824Z,19.80
2019-02-12T15:00:03.061Z,16.90
2019-02-12T15:02:32.336Z,13.65
2019-02-12T15:05:01.252Z,15.53
2019-02-12T15:07:30.295Z,15.20
2019-02-12T15:09:59.233Z,17.15
2019-02-12T15:12:28.171Z,19.17
2019-02-12T15:14:57.200Z,18.75
2019-02-12T15:17:26.201Z,17.77
2019-02-12T15:19:55.207Z,18.67
2019-02-12T15:22:24.277Z,15.03
2019-02-12T15:24:53.199Z,13.72
2019-02-12T15:27:22.024Z,18.95
2019-02-12T15:29:50.923Z,16.07
2019-02-12T15:32:19.876Z,13.53
2019-02-12T15:34:48.785Z,15.80
2019-02-12T15:37:17.671Z,17.67
2019-02-12T15:39:46.664Z,19.27
2019-02-12T15:42:15.685Z,16.67
2019-02-12T15:44:44.952Z,14.43
2019-02-12T15:47:13.879Z,15.90
2019-02-12T15:49:42.852Z,21.57
2019-02-12T15:52:11.896Z,20.10
2019-02-12T15:54:40.863Z,18.40
2019-02-12T15:57:09.756Z,16.75
2019-02-12T15:59:38.687Z,17.85
2019-02-12T16:02:07.649Z,18.42
2019-02-12T16:04:36.500Z,20.85
2019-02-12T16:07:05.556Z,15.45
2019-02-12T16:09:35.122Z,16.33
2019-02-12T16:12:06.006Z,17.17
2019-02-12T16:14:34.904Z,15.72
2019-02-12T16:17:03.859Z,19.35
2019-02-12T16:19:33.348Z,17.05
2019-02-12T16:22:02.327Z,20.50
2019-02-12T16:24:31.192Z,17.05
2019-02-12T16:27:00.560Z,18.17
2019-02-12T16:29:29.906Z,19.62
2019-02-12T16:31:58.801Z,18.60
2019-02-12T16:34:28.613Z,17.82
2019-02-12T16:36:58.214Z,18.92
2019-02-12T16:39:27.056Z,18.20
2019-02-12T16:41:55.921Z,15.88
2019-02-12T16:44:24.863Z,17.95
2019-02-12T16:46:53.744Z,17.27
2019-02-12T16:49:23.003Z,16.25
2019-02-12T16:51:52.344Z,16.67
2019-02-12T16:54:21.280Z,19.02
2019-02-12T16:56:50.114Z,17.77
2019-02-12T16:59:19.482Z,18.45
2019-02-12T17:01:48.397Z,19.40
2019-02-12T17:04:17.441Z,15.35
2019-02-12T17:06:46.340Z,19.85
2019-02-12T17:09:15.195Z,18.05
2019-02-12T17:11:44.036Z,16.48
2019-02-12T17:14:12.999Z,18.48
2019-02-12T17:16:41.895Z,22.15
2019-02-12T17:19:10.744Z,17.52
2019-02-12T17:21:39.641Z,17.62
2019-02-12T17:24:08.635Z,17.12
2019-02-12T17:26:37.640Z,19.67
2019-02-12T17:29:06.508Z,18.07
2019-02-12T17:31:35.799Z,18.80
2019-02-12T17:34:04.787Z,20.10
2019-02-12T17:36:33.681Z,17.05
2019-02-12T17:39:03.092Z,16.93
2019-02-12T17:41:32.020Z,18.40
2019-02-12T17:44:00.903Z,17.37
2019-02-12T17:46:29.770Z,16.25
2019-02-12T17:48:58.628Z,20.17
2019-02-12T17:51:27.764Z,16.85
2019-02-12T17:53:56.635Z,18.92
2019-02-12T17:56:25.627Z,17.67
2019-02-12T17:58:54.516Z,18.85
2019-02-12T18:01:23.387Z,19.13
2019-02-12T18:03:52.244Z,15.93
2019-02-12T18:06:21.159Z,16.37
2019-02-12T18:08:50.014Z,17.80
2019-02-12T18:11:18.945Z,17.77
2019-02-12T18:13:47.817Z,19.35
2019-02-12T18:16:16.656Z,19.85
2019-02-12T18:18:45.577Z,17.73
2019-02-12T18:21:14.564Z,20.35
2019-02-12T18:23:43.747Z,16.80
2019-02-12T18:26:12.602Z,20.32
2019-02-12T18:28:41.640Z,17.82
2019-02-12T18:31:10.509Z,19.57
2019-02-12T18:33:39.421Z,18.42
2019-02-12T18:36:08.417Z,20.08
2019-02-12T18:38:37.555Z,20.10
2019-02-12T18:41:06.515Z,18.50
2019-02-12T18:43:35.424Z,19.40
2019-02-12T18:46:04.415Z,17.90
2019-02-12T18:48:33.557Z,18.37
2019-02-12T18:51:03.318Z,18.17
2019-02-12T18:53:32.248Z,20.60
2019-02-12T18:56:01.628Z,18.75
2019-02-12T18:58:30.603Z,19.77
2019-02-12T19:00:59.481Z,21.23
2019-02-12T19:03:28.477Z,18.90
2019-02-12T19:05:57.332Z,19.82
2019-02-12T19:08:26.304Z,17.57
2019-02-12T19:10:55.211Z,17.15
2019-02-12T19:13:24.392Z,16.80
2019-02-12T19:15:53.304Z,18.30
2019-02-12T19:18:24.999Z,21.15
2019-02-12T19:20:53.836Z,18.42
2019-02-12T19:23:22.992Z,19.50
2019-02-12T19:25:52.439Z,19.65
2019-02-12T19:28:21.352Z,17.17
2019-02-12T19:30:50.324Z,20.08
2019-02-12T19:33:19.219Z,20.97
2019-02-12T19:35:48.312Z,22.48
2019-02-12T19:38:17.169Z,18.12
2019-02-12T19:40:46.079Z,19.75
2019-02-12T19:43:15.534Z,19.93
2019-02-12T19:45:44.624Z,18.02
2019-02-12T19:48:13.530Z,20.75
2019-02-12T19:50:42.541Z,23.13
2019-02-12T19:53:11.407Z,25.23
2019-02-12T19:55:40.388Z,23.50
2019-02-12T19:58:09.335Z,25.72
2019-02-12T20:00:38.280Z,23.30
2019-02-12T20:03:07.270Z,22.20
2019-02-12T20:05:36.226Z,28.15
2019-02-12T20:08:06.264Z,23.52
2019-02-12T20:10:35.221Z,24.37
2019-02-12T20:13:04.148Z,23.55
2019-02-12T20:15:32.996Z,23.30
2019-02-12T20:18:01.871Z,22.07
2019-02-12T20:20:30.856Z,22.30
2019-02-12T20:22:59.917Z,22.25
2019-02-12T20:25:28.903Z,21.82
2019-02-12T20:27:57.745Z,21.65
2019-02-12T20:30:26.784Z,24.55
2019-02-12T20:32:55.733Z,19.63
2019-02-12T20:35:24.693Z,21.30
2019-02-12T20:37:53.912Z,19.17
2019-02-12T20:40:22.837Z,17.42
2019-02-12T20:42:51.735Z,20.85
2019-02-12T20:45:20.744Z,18.65
2019-02-12T20:47:49.768Z,20.57
2019-02-12T20:50:18.976Z,18.50
2019-02-12T20:52:47.956Z,19.32
2019-02-12T20:55:22.492Z,26.07
2019-02-12T20:57:51.630Z,23.10
2019-02-12T21:00:20.731Z,20.65
2019-02-12T21:02:49.728Z,23.45
2019-02-12T21:05:18.723Z,23.27
2019-02-12T21:07:47.639Z,21.35
2019-02-12T21:10:17.424Z,22.02
2019-02-12T21:12:46.284Z,21.60
2019-02-12T21:15:17.588Z,20.40
2019-02-12T21:17:46.532Z,20.50
2019-02-12T21:20:15.525Z,19.65
2019-02-12T21:22:44.536Z,20.08
2019-02-12T21:25:13.644Z,19.37
2019-02-12T21:27:42.664Z,21.83
2019-02-12T21:30:13.865Z,19.00
2019-02-12T21:32:43.095Z,19.33
2019-02-12T21:35:12.624Z,21.33
2019-02-12T21:37:41.584Z,18.95
2019-02-12T21:40:13.545Z,19.12
2019-02-12T21:42:42.472Z,20.00
2019-02-12T21:45:12.697Z,20.08
2019-02-12T21:47:43.164Z,20.52
2019-02-12T21:50:12.183Z,18.85
2019-02-12T21:52:41.112Z,18.60
2019-02-12T21:55:10.352Z,20.30
2019-02-12T21:57:39.364Z,17.82
2019-02-12T22:00:10.605Z,18.17
2019-02-12T22:02:39.600Z,19.73
2019-02-12T22:05:09.722Z,19.42
2019-02-12T22:07:38.676Z,20.20
2019-02-12T22:10:10.381Z,20.57
2019-02-12T22:12:39.448Z,19.60
2019-02-12T22:15:11.044Z,19.85
2019-02-12T22:17:40.587Z,19.40
2019-02-12T22:20:11.336Z,17.90
2019-02-12T22:22:40.355Z,21.40
2019-02-12T22:25:09.447Z,19.45
2019-02-12T22:27:40.668Z,23.52
2019-02-12T22:30:15.736Z,19.50
2019-02-12T22:32:45.053Z,18.23
2019-02-12T22:35:14.772Z,18.50
2019-02-12T22:37:43.872Z,18.95
2019-02-12T22:40:13.403Z,19.57
2019-02-12T22:42:42.468Z,17.92
2019-02-12T22:45:14.124Z,20.00
2019-02-12T22:47:45.152Z,20.88
2019-02-12T22:50:14.149Z,20.57
2019-02-12T22:52:43.505Z,20.25
2019-02-12T22:55:12.716Z,20.70
2019-02-12T22:57:48.951Z,18.92
2019-02-12T23:00:27.863Z,21.50
2019-02-12T23:02:57.228Z,20.45
2019-02-12T23:05:26.215Z,21.10
2019-02-12T23:07:55.199Z,21.73
2019-02-12T23:10:24.104Z,21.23
2019-02-12T23:12:53.320Z,17.45
2019-02-12T23:15:22.824Z,17.75
2019-02-12T23:17:51.775Z,20.35
2019-02-12T23:20:20.688Z,18.57
2019-02-12T23:22:49.844Z,19.10
2019-02-12T23:25:18.759Z,21.50
2019-02-12T23:27:47.663Z,21.60
2019-02-12T23:30:16.681Z,20.03
2019-02-12T23:32:45.541Z,18.52
2019-02-12T23:35:14.746Z,18.80
2019-02-12T23:37:43.768Z,18.30
2019-02-12T23:40:12.771Z,22.65
2019-02-12T23:42:41.676Z,20.43
2019-02-12T23:45:10.723Z,19.32
2019-02-12T23:47:39.652Z,19.25
2019-02-12T23:50:10.520Z,22.03
2019-02-12T23:52:39.426Z,20.12
2019-02-12T23:55:08.335Z,19.75
2019-02-12T23:57:37.257Z,18.57
